sensor_id;sensor_type;location;lat;lon;timestamp;pressure;altitude;pressure_sealevel;temperature;humidity
29247;BME280;16272;48.188;9.964;2023-02-12T00:00:21;97635.38;;;1.93;75.75
29247;BME280;16272;48.188;9.964;2023-02-12T00:02:47;97634.66;;;2.15;75.16
29247;BME280;16272;48.188;9.964;2023-02-12T00:05:12;97638.34;;;1.84;75.73
29247;BME280;16272;48.188;9.964;2023-02-12T00:07:38;97630.50;;;1.84;76.27
29247;BME280;16272;48.188;9.964;2023-02-12T00:10:03;97642.06;;;1.77;74.11
29247;BME280;16272;48.188;9.964;2023-02-12T00:12:29;97648.34;;;1.73;73.81
29247;BME280;16272;48.188;9.964;2023-02-12T00:14:55;97645.72;;;1.98;73.57
29247;BME280;16272;48.188;9.964;2023-02-12T00:17:21;97650.00;;;2.26;72.06
29247;BME280;16272;48.188;9.964;2023-02-12T00:19:46;97644.47;;;2.33;72.29
29247;BME280;16272;48.188;9.964;2023-02-12T00:22:12;97643.16;;;2.69;70.39
29247;BME280;16272;48.188;9.964;2023-02-12T00:24:38;97642.16;;;2.95;69.01
29247;BME280;16272;48.188;9.964;2023-02-12T00:27:03;97635.78;;;3.02;68.31
29247;BME280;16272;48.188;9.964;2023-02-12T00:29:28;97635.00;;;3.00;68.25
29247;BME280;16272;48.188;9.964;2023-02-12T00:31:53;97634.00;;;2.81;69.83
29247;BME280;16272;48.188;9.964;2023-02-12T00:34:19;97643.31;;;2.17;73.28
29247;BME280;16272;48.188;9.964;2023-02-12T00:36:44;97638.59;;;2.27;73.10
29247;BME280;16272;48.188;9.964;2023-02-12T00:39:09;97633.81;;;2.62;71.56
29247;BME280;16272;48.188;9.964;2023-02-12T00:41:35;97635.06;;;2.75;69.61
29247;BME280;16272;48.188;9.964;2023-02-12T00:44:00;97631.13;;;2.63;70.30
29247;BME280;16272;48.188;9.964;2023-02-12T00:46:26;97647.78;;;2.38;72.53
29247;BME280;16272;48.188;9.964;2023-02-12T00:48:51;97658.84;;;2.47;72.38
29247;BME280;16272;48.188;9.964;2023-02-12T00:51:16;97648.91;;;2.79;70.38
29247;BME280;16272;48.188;9.964;2023-02-12T00:53:41;97654.72;;;2.87;70.66
29247;BME280;16272;48.188;9.964;2023-02-12T00:56:07;97656.00;;;2.53;71.76
29247;BME280;16272;48.188;9.964;2023-02-12T00:58:32;97656.22;;;2.70;70.19
29247;BME280;16272;48.188;9.964;2023-02-12T01:00:58;97652.81;;;2.92;69.36
29247;BME280;16272;48.188;9.964;2023-02-12T01:03:23;97647.41;;;2.95;69.64
29247;BME280;16272;48.188;9.964;2023-02-12T01:05:48;97647.84;;;2.84;70.52
29247;BME280;16272;48.188;9.964;2023-02-12T01:08:15;97662.50;;;2.66;72.10
29247;BME280;16272;48.188;9.964;2023-02-12T01:10:42;97670.22;;;1.97;74.31
29247;BME280;16272;48.188;9.964;2023-02-12T01:13:11;97674.09;;;2.12;74.47
29247;BME280;16272;48.188;9.964;2023-02-12T01:15:37;97671.50;;;2.35;73.90
29247;BME280;16272;48.188;9.964;2023-02-12T01:18:02;97668.34;;;2.00;75.65
29247;BME280;16272;48.188;9.964;2023-02-12T01:20:27;97665.03;;;1.95;74.88
29247;BME280;16272;48.188;9.964;2023-02-12T01:22:53;97664.50;;;2.11;74.68
29247;BME280;16272;48.188;9.964;2023-02-12T01:25:18;97666.56;;;2.26;73.36
29247;BME280;16272;48.188;9.964;2023-02-12T01:27:43;97665.03;;;2.20;73.59
29247;BME280;16272;48.188;9.964;2023-02-12T01:30:11;97667.16;;;2.34;73.21
29247;BME280;16272;48.188;9.964;2023-02-12T01:32:37;97661.69;;;2.41;72.11
29247;BME280;16272;48.188;9.964;2023-02-12T01:35:03;97654.97;;;2.57;71.88
29247;BME280;16272;48.188;9.964;2023-02-12T01:37:28;97655.75;;;2.59;72.63
29247;BME280;16272;48.188;9.964;2023-02-12T01:39:54;97661.00;;;2.59;70.97
29247;BME280;16272;48.188;9.964;2023-02-12T01:42:19;97662.84;;;2.33;72.10
29247;BME280;16272;48.188;9.964;2023-02-12T01:47:40;97651.53;;;2.79;70.50
29247;BME280;16272;48.188;9.964;2023-02-12T01:50:10;97647.44;;;2.71;70.56
29247;BME280;16272;48.188;9.964;2023-02-12T01:52:39;97644.88;;;2.70;71.04
29247;BME280;16272;48.188;9.964;2023-02-12T01:55:08;97656.06;;;2.51;71.65
29247;BME280;16272;48.188;9.964;2023-02-12T01:57:38;97643.00;;;2.73;70.01
29247;BME280;16272;48.188;9.964;2023-02-12T02:00:07;97649.63;;;2.84;70.44
29247;BME280;16272;48.188;9.964;2023-02-12T02:02:33;97654.19;;;2.55;71.64
29247;BME280;16272;48.188;9.964;2023-02-12T02:05:02;97652.75;;;2.70;70.63
29247;BME280;16272;48.188;9.964;2023-02-12T02:07:28;97646.28;;;2.79;70.13
29247;BME280;16272;48.188;9.964;2023-02-12T02:09:55;97641.03;;;2.79;70.71
29247;BME280;16272;48.188;9.964;2023-02-12T02:12:21;97655.19;;;2.98;70.16
29247;BME280;16272;48.188;9.964;2023-02-12T02:15:06;97640.38;;;2.97;70.44
29247;BME280;16272;48.188;9.964;2023-02-12T02:18:47;97634.72;;;3.06;69.31
29247;BME280;16272;48.188;9.964;2023-02-12T02:26:40;97632.72;;;2.44;72.83
29247;BME280;16272;48.188;9.964;2023-02-12T02:31:45;97632.50;;;2.73;73.07
29247;BME280;16272;48.188;9.964;2023-02-12T02:34:23;97633.19;;;2.55;72.63
29247;BME280;16272;48.188;9.964;2023-02-12T02:37:03;97622.78;;;2.30;74.10
29247;BME280;16272;48.188;9.964;2023-02-12T02:42:43;97634.78;;;2.12;75.97
29247;BME280;16272;48.188;9.964;2023-02-12T02:45:25;97624.56;;;2.28;74.57
29247;BME280;16272;48.188;9.964;2023-02-12T02:47:59;97621.41;;;2.18;74.38
29247;BME280;16272;48.188;9.964;2023-02-12T02:50:28;97628.19;;;1.75;74.89
29247;BME280;16272;48.188;9.964;2023-02-12T02:53:02;97628.34;;;2.20;73.17
29247;BME280;16272;48.188;9.964;2023-02-12T02:55:37;97620.59;;;2.65;71.34
29247;BME280;16272;48.188;9.964;2023-02-12T02:58:09;97620.94;;;2.55;72.12
29247;BME280;16272;48.188;9.964;2023-02-12T03:00:39;97626.22;;;2.54;72.36
29247;BME280;16272;48.188;9.964;2023-02-12T03:03:13;97632.09;;;2.61;72.20
29247;BME280;16272;48.188;9.964;2023-02-12T03:05:46;97631.31;;;2.58;71.69
29247;BME280;16272;48.188;9.964;2023-02-12T03:08:14;97628.84;;;2.78;71.13
29247;BME280;16272;48.188;9.964;2023-02-12T03:10:45;97635.22;;;2.70;71.99
29247;BME280;16272;48.188;9.964;2023-02-12T03:13:15;97635.53;;;2.63;72.68
29247;BME280;16272;48.188;9.964;2023-02-12T03:18:24;97638.00;;;2.67;72.74
29247;BME280;16272;48.188;9.964;2023-02-12T03:20:59;97642.91;;;2.53;73.22
29247;BME280;16272;48.188;9.964;2023-02-12T03:23:37;97644.72;;;2.74;72.51
29247;BME280;16272;48.188;9.964;2023-02-12T03:26:11;97649.47;;;2.16;73.47
29247;BME280;16272;48.188;9.964;2023-02-12T03:28:38;97655.81;;;2.34;74.82
29247;BME280;16272;48.188;9.964;2023-02-12T03:33:45;97646.16;;;2.11;76.40
29247;BME280;16272;48.188;9.964;2023-02-12T03:36:50;97647.44;;;1.99;78.26
29247;BME280;16272;48.188;9.964;2023-02-12T03:39:32;97654.03;;;1.86;77.66
29247;BME280;16272;48.188;9.964;2023-02-12T03:42:06;97649.13;;;2.00;76.72
29247;BME280;16272;48.188;9.964;2023-02-12T03:44:52;97643.56;;;2.58;74.12
29247;BME280;16272;48.188;9.964;2023-02-12T03:50:16;97652.81;;;2.68;73.04
29247;BME280;16272;48.188;9.964;2023-02-12T03:52:44;97651.31;;;2.37;73.83
29247;BME280;16272;48.188;9.964;2023-02-12T03:55:10;97649.03;;;2.52;74.12
29247;BME280;16272;48.188;9.964;2023-02-12T03:57:43;97643.81;;;2.52;75.01
29247;BME280;16272;48.188;9.964;2023-02-12T04:00:23;97639.59;;;2.48;74.91
29247;BME280;16272;48.188;9.964;2023-02-12T04:02:49;97647.47;;;2.48;74.20
29247;BME280;16272;48.188;9.964;2023-02-12T04:05:24;97648.38;;;2.47;74.73
29247;BME280;16272;48.188;9.964;2023-02-12T04:07:51;97642.22;;;2.48;75.04
29247;BME280;16272;48.188;9.964;2023-02-12T04:10:21;97646.84;;;1.64;76.76
29247;BME280;16272;48.188;9.964;2023-02-12T04:12:56;97649.34;;;1.42;79.11
29247;BME280;16272;48.188;9.964;2023-02-12T04:15:45;97658.66;;;1.77;77.80
29247;BME280;16272;48.188;9.964;2023-02-12T04:18:24;97658.31;;;2.13;77.56
29247;BME280;16272;48.188;9.964;2023-02-12T04:24:15;97668.31;;;2.02;76.36
29247;BME280;16272;48.188;9.964;2023-02-12T04:29:30;97674.69;;;2.44;75.54
29247;BME280;16272;48.188;9.964;2023-02-12T04:37:35;97676.91;;;2.06;77.05
29247;BME280;16272;48.188;9.964;2023-02-12T04:40:05;97675.44;;;1.98;77.35
29247;BME280;16272;48.188;9.964;2023-02-12T04:42:42;97683.72;;;1.84;76.85
29247;BME280;16272;48.188;9.964;2023-02-12T04:45:10;97675.53;;;1.95;77.69
29247;BME280;16272;48.188;9.964;2023-02-12T04:47:36;97670.69;;;2.08;77.50
29247;BME280;16272;48.188;9.964;2023-02-12T04:50:02;97678.84;;;2.00;77.39
29247;BME280;16272;48.188;9.964;2023-02-12T04:52:27;97677.91;;;2.01;77.74
29247;BME280;16272;48.188;9.964;2023-02-12T04:54:53;97674.16;;;1.83;77.34
29247;BME280;16272;48.188;9.964;2023-02-12T04:57:18;97677.59;;;1.59;79.22
29247;BME280;16272;48.188;9.964;2023-02-12T04:59:43;97674.72;;;1.67;78.80
29247;BME280;16272;48.188;9.964;2023-02-12T05:02:09;97679.25;;;1.61;79.06
29247;BME280;16272;48.188;9.964;2023-02-12T05:04:34;97681.88;;;1.61;79.22
29247;BME280;16272;48.188;9.964;2023-02-12T05:06:59;97680.03;;;1.90;78.73
29247;BME280;16272;48.188;9.964;2023-02-12T05:09:25;97676.75;;;2.10;77.41
29247;BME280;16272;48.188;9.964;2023-02-12T05:11:51;97680.66;;;1.98;78.12
29247;BME280;16272;48.188;9.964;2023-02-12T05:14:16;97671.66;;;2.06;77.49
29247;BME280;16272;48.188;9.964;2023-02-12T05:16:42;97669.94;;;2.05;77.57
29247;BME280;16272;48.188;9.964;2023-02-12T05:19:07;97663.88;;;2.53;76.34
29247;BME280;16272;48.188;9.964;2023-02-12T05:21:34;97659.25;;;2.60;75.83
29247;BME280;16272;48.188;9.964;2023-02-12T05:24:00;97660.22;;;2.81;74.03
29247;BME280;16272;48.188;9.964;2023-02-12T05:26:26;97673.22;;;2.36;75.60
29247;BME280;16272;48.188;9.964;2023-02-12T05:28:51;97675.28;;;2.01;77.26
29247;BME280;16272;48.188;9.964;2023-02-12T05:31:19;97670.22;;;1.97;77.35
29247;BME280;16272;48.188;9.964;2023-02-12T05:33:45;97674.97;;;2.11;78.09
29247;BME280;16272;48.188;9.964;2023-02-12T05:36:15;97679.53;;;2.31;77.76
29247;BME280;16272;48.188;9.964;2023-02-12T05:38:41;97675.63;;;1.92;77.81
29247;BME280;16272;48.188;9.964;2023-02-12T05:41:09;97672.31;;;2.12;77.41
29247;BME280;16272;48.188;9.964;2023-02-12T05:43:35;97674.34;;;1.79;78.68
29247;BME280;16272;48.188;9.964;2023-02-12T05:46:02;97673.41;;;1.80;78.88
29247;BME280;16272;48.188;9.964;2023-02-12T05:48:29;97676.22;;;2.00;78.51
29247;BME280;16272;48.188;9.964;2023-02-12T05:51:00;97679.22;;;1.63;78.18
29247;BME280;16272;48.188;9.964;2023-02-12T05:53:26;97666.41;;;1.27;80.90
29247;BME280;16272;48.188;9.964;2023-02-12T05:55:51;97678.25;;;1.65;78.78
29247;BME280;16272;48.188;9.964;2023-02-12T05:58:16;97674.25;;;2.07;78.15
29247;BME280;16272;48.188;9.964;2023-02-12T06:00:42;97673.78;;;2.19;77.46
29247;BME280;16272;48.188;9.964;2023-02-12T06:03:07;97679.00;;;2.46;75.70
29247;BME280;16272;48.188;9.964;2023-02-12T06:05:32;97673.75;;;2.46;75.65
29247;BME280;16272;48.188;9.964;2023-02-12T06:07:57;97671.28;;;2.65;74.19
29247;BME280;16272;48.188;9.964;2023-02-12T06:10:23;97682.41;;;2.72;73.93
29247;BME280;16272;48.188;9.964;2023-02-12T06:12:53;97677.69;;;2.58;74.21
29247;BME280;16272;48.188;9.964;2023-02-12T06:15:18;97683.38;;;2.69;73.92
29247;BME280;16272;48.188;9.964;2023-02-12T06:17:43;97693.06;;;2.44;74.28
29247;BME280;16272;48.188;9.964;2023-02-12T06:20:09;97682.06;;;2.81;72.09
29247;BME280;16272;48.188;9.964;2023-02-12T06:22:34;97683.66;;;2.85;71.85
29247;BME280;16272;48.188;9.964;2023-02-12T06:25:00;97685.66;;;2.79;73.54
29247;BME280;16272;48.188;9.964;2023-02-12T06:27:25;97689.94;;;2.57;74.54
29247;BME280;16272;48.188;9.964;2023-02-12T06:29:50;97691.47;;;2.87;73.85
29247;BME280;16272;48.188;9.964;2023-02-12T06:32:16;97697.88;;;2.80;73.23
29247;BME280;16272;48.188;9.964;2023-02-12T06:34:41;97691.88;;;3.00;72.45
29247;BME280;16272;48.188;9.964;2023-02-12T06:37:06;97694.16;;;3.09;72.31
29247;BME280;16272;48.188;9.964;2023-02-12T06:39:32;97699.78;;;2.98;72.94
29247;BME280;16272;48.188;9.964;2023-02-12T06:41:57;97693.53;;;3.02;73.33
29247;BME280;16272;48.188;9.964;2023-02-12T06:44:22;97700.75;;;3.19;73.05
29247;BME280;16272;48.188;9.964;2023-02-12T06:46:48;97699.69;;;3.25;71.25
29247;BME280;16272;48.188;9.964;2023-02-12T06:49:13;97697.78;;;3.28;71.80
29247;BME280;16272;48.188;9.964;2023-02-12T06:51:38;97691.41;;;3.34;72.97
29247;BME280;16272;48.188;9.964;2023-02-12T06:54:12;97700.22;;;3.33;72.53
29247;BME280;16272;48.188;9.964;2023-02-12T06:56:37;97703.09;;;3.49;73.08
29247;BME280;16272;48.188;9.964;2023-02-12T06:59:02;97706.38;;;3.32;74.28
29247;BME280;16272;48.188;9.964;2023-02-12T07:01:28;97709.50;;;3.42;73.21
29247;BME280;16272;48.188;9.964;2023-02-12T07:04:01;97709.25;;;3.26;74.43
29247;BME280;16272;48.188;9.964;2023-02-12T07:06:27;97706.97;;;3.62;74.21
29247;BME280;16272;48.188;9.964;2023-02-12T07:08:54;97710.72;;;3.77;75.00
29247;BME280;16272;48.188;9.964;2023-02-12T07:11:23;97712.31;;;3.37;75.82
29247;BME280;16272;48.188;9.964;2023-02-12T07:13:49;97707.06;;;3.37;78.25
29247;BME280;16272;48.188;9.964;2023-02-12T07:16:15;97697.97;;;3.89;74.53
29247;BME280;16272;48.188;9.964;2023-02-12T07:18:41;97706.63;;;3.70;75.13
29247;BME280;16272;48.188;9.964;2023-02-12T07:21:08;97712.19;;;3.40;79.75
29247;BME280;16272;48.188;9.964;2023-02-12T07:23:34;97710.78;;;3.54;78.99
29247;BME280;16272;48.188;9.964;2023-02-12T07:26:02;97714.88;;;3.39;79.99
29247;BME280;16272;48.188;9.964;2023-02-12T07:28:28;97697.66;;;3.76;77.42
29247;BME280;16272;48.188;9.964;2023-02-12T07:30:57;97706.81;;;3.65;78.21
29247;BME280;16272;48.188;9.964;2023-02-12T07:33:22;97703.34;;;3.43;78.04
29247;BME280;16272;48.188;9.964;2023-02-12T07:35:48;97706.28;;;3.35;78.61
29247;BME280;16272;48.188;9.964;2023-02-12T07:38:13;97702.13;;;3.06;80.08
29247;BME280;16272;48.188;9.964;2023-02-12T07:40:39;97703.53;;;3.38;78.39
29247;BME280;16272;48.188;9.964;2023-02-12T07:43:04;97703.31;;;3.87;76.45
29247;BME280;16272;48.188;9.964;2023-02-12T07:45:29;97698.66;;;3.51;77.44
29247;BME280;16272;48.188;9.964;2023-02-12T07:47:55;97703.22;;;3.89;76.53
29247;BME280;16272;48.188;9.964;2023-02-12T07:50:20;97700.22;;;3.77;76.64
29247;BME280;16272;48.188;9.964;2023-02-12T07:52:48;97706.81;;;3.65;77.32
29247;BME280;16272;48.188;9.964;2023-02-12T07:55:14;97703.53;;;3.38;79.04
29247;BME280;16272;48.188;9.964;2023-02-12T07:57:39;97709.13;;;3.29;79.30
29247;BME280;16272;48.188;9.964;2023-02-12T08:00:05;97698.97;;;3.64;77.75
29247;BME280;16272;48.188;9.964;2023-02-12T08:02:30;97695.03;;;3.96;76.99
29247;BME280;16272;48.188;9.964;2023-02-12T08:04:56;97688.28;;;4.71;74.07
29247;BME280;16272;48.188;9.964;2023-02-12T08:07:23;97693.44;;;4.93;74.35
29247;BME280;16272;48.188;9.964;2023-02-12T08:09:49;97699.59;;;4.54;73.82
29247;BME280;16272;48.188;9.964;2023-02-12T08:12:15;97690.72;;;4.76;73.83
29247;BME280;16272;48.188;9.964;2023-02-12T08:14:40;97693.25;;;4.58;74.72
29247;BME280;16272;48.188;9.964;2023-02-12T08:17:07;97689.94;;;4.93;73.87
29247;BME280;16272;48.188;9.964;2023-02-12T08:19:33;97692.38;;;4.97;73.47
29247;BME280;16272;48.188;9.964;2023-02-12T08:21:58;97701.66;;;4.67;73.46
29247;BME280;16272;48.188;9.964;2023-02-12T08:24:26;97698.78;;;5.11;73.86
29247;BME280;16272;48.188;9.964;2023-02-12T08:26:51;97692.81;;;5.26;71.59
29247;BME280;16272;48.188;9.964;2023-02-12T08:29:19;97691.94;;;5.45;71.75
29247;BME280;16272;48.188;9.964;2023-02-12T08:31:47;97692.16;;;4.83;73.96
29247;BME280;16272;48.188;9.964;2023-02-12T08:34:24;97695.75;;;4.62;73.95
29247;BME280;16272;48.188;9.964;2023-02-12T08:36:51;97694.97;;;4.78;74.39
29247;BME280;16272;48.188;9.964;2023-02-12T08:39:21;97701.19;;;4.38;75.32
29247;BME280;16272;48.188;9.964;2023-02-12T08:41:47;97691.50;;;4.38;75.11
29247;BME280;16272;48.188;9.964;2023-02-12T08:44:13;97698.13;;;4.47;75.48
29247;BME280;16272;48.188;9.964;2023-02-12T08:46:42;97694.00;;;4.81;73.95
29247;BME280;16272;48.188;9.964;2023-02-12T08:49:12;97693.72;;;4.87;73.13
29247;BME280;16272;48.188;9.964;2023-02-12T08:51:42;97684.06;;;5.07;72.90
29247;BME280;16272;48.188;9.964;2023-02-12T08:54:13;97693.03;;;5.03;73.18
29247;BME280;16272;48.188;9.964;2023-02-12T08:56:39;97690.31;;;5.04;73.13
29247;BME280;16272;48.188;9.964;2023-02-12T08:59:06;97688.53;;;5.43;71.79
29247;BME280;16272;48.188;9.964;2023-02-12T09:01:34;97694.28;;;5.32;72.83
29247;BME280;16272;48.188;9.964;2023-02-12T09:04:02;97694.72;;;5.23;72.21
29247;BME280;16272;48.188;9.964;2023-02-12T09:06:31;97690.81;;;5.68;71.59
29247;BME280;16272;48.188;9.964;2023-02-12T09:08:56;97692.28;;;5.56;71.59
29247;BME280;16272;48.188;9.964;2023-02-12T09:11:24;97689.81;;;5.70;70.92
29247;BME280;16272;48.188;9.964;2023-02-12T09:13:58;97689.50;;;5.77;71.89
29247;BME280;16272;48.188;9.964;2023-02-12T09:16:24;97678.81;;;5.80;71.29
29247;BME280;16272;48.188;9.964;2023-02-12T09:18:49;97683.50;;;6.10;70.51
29247;BME280;16272;48.188;9.964;2023-02-12T09:21:15;97680.47;;;6.00;70.53
29247;BME280;16272;48.188;9.964;2023-02-12T09:23:44;97670.31;;;5.92;70.32
29247;BME280;16272;48.188;9.964;2023-02-12T09:26:12;97668.09;;;5.65;71.58
29247;BME280;16272;48.188;9.964;2023-02-12T09:28:39;97674.75;;;6.09;70.20
29247;BME280;16272;48.188;9.964;2023-02-12T09:33:31;97676.50;;;5.91;71.02
29247;BME280;16272;48.188;9.964;2023-02-12T09:36:01;97681.09;;;6.05;70.06
29247;BME280;16272;48.188;9.964;2023-02-12T09:38:27;97665.13;;;6.92;68.41
29247;BME280;16272;48.188;9.964;2023-02-12T09:51:50;97669.41;;;7.43;69.73
29247;BME280;16272;48.188;9.964;2023-02-12T09:54:20;97666.56;;;8.08;65.69
29247;BME280;16272;48.188;9.964;2023-02-12T09:56:49;97671.28;;;8.33;64.49
29247;BME280;16272;48.188;9.964;2023-02-12T09:59:36;97669.22;;;7.46;65.17
29247;BME280;16272;48.188;9.964;2023-02-12T10:02:12;97670.44;;;7.56;66.06
29247;BME280;16272;48.188;9.964;2023-02-12T10:04:38;97683.44;;;8.36;64.60
29247;BME280;16272;48.188;9.964;2023-02-12T10:07:18;97677.75;;;8.27;63.62
29247;BME280;16272;48.188;9.964;2023-02-12T10:12:45;97691.44;;;7.43;66.66
29247;BME280;16272;48.188;9.964;2023-02-12T10:15:23;97680.72;;;7.77;65.98
29247;BME280;16272;48.188;9.964;2023-02-12T10:23:43;97670.78;;;8.71;62.94
29247;BME280;16272;48.188;9.964;2023-02-12T10:26:40;97673.00;;;8.04;65.05
29247;BME280;16272;48.188;9.964;2023-02-12T10:29:15;97672.56;;;8.56;63.53
29247;BME280;16272;48.188;9.964;2023-02-12T10:31:45;97665.28;;;8.29;64.46
29247;BME280;16272;48.188;9.964;2023-02-12T10:34:20;97660.66;;;8.78;63.04
29247;BME280;16272;48.188;9.964;2023-02-12T10:36:50;97657.03;;;9.08;62.44
29247;BME280;16272;48.188;9.964;2023-02-12T10:39:27;97656.97;;;8.66;62.90
29247;BME280;16272;48.188;9.964;2023-02-12T10:44:36;97659.63;;;7.91;65.31
29247;BME280;16272;48.188;9.964;2023-02-12T10:47:02;97656.56;;;8.13;64.73
29247;BME280;16272;48.188;9.964;2023-02-12T10:49:29;97659.69;;;9.08;64.34
29247;BME280;16272;48.188;9.964;2023-02-12T10:53:00;97649.84;;;8.52;64.15
29247;BME280;16272;48.188;9.964;2023-02-12T10:55:00;97651.38;;;8.56;63.98
29247;BME280;16272;48.188;9.964;2023-02-12T10:57:28;97651.56;;;8.68;64.05
29247;BME280;16272;48.188;9.964;2023-02-12T10:59:56;97651.28;;;8.27;63.63
29247;BME280;16272;48.188;9.964;2023-02-12T11:02:38;97633.59;;;8.58;62.87
29247;BME280;16272;48.188;9.964;2023-02-12T11:05:23;97632.28;;;8.51;63.76
29247;BME280;16272;48.188;9.964;2023-02-12T11:07:50;97636.72;;;8.65;63.71
29247;BME280;16272;48.188;9.964;2023-02-12T11:10:26;97630.88;;;8.29;64.44
29247;BME280;16272;48.188;9.964;2023-02-12T11:12:53;97626.94;;;8.80;63.72
29247;BME280;16272;48.188;9.964;2023-02-12T11:15:21;97620.66;;;8.38;63.67
29247;BME280;16272;48.188;9.964;2023-02-12T11:18:02;97627.19;;;8.32;64.20
29247;BME280;16272;48.188;9.964;2023-02-12T11:20:40;97624.09;;;7.95;65.14
29247;BME280;16272;48.188;9.964;2023-02-12T11:28:57;97623.56;;;8.78;63.91
29247;BME280;16272;48.188;9.964;2023-02-12T11:31:28;97625.72;;;7.98;63.72
29247;BME280;16272;48.188;9.964;2023-02-12T11:36:30;97613.59;;;9.10;62.81
29247;BME280;16272;48.188;9.964;2023-02-12T11:38:58;97617.19;;;8.80;62.89
29247;BME280;16272;48.188;9.964;2023-02-12T11:41:31;97610.22;;;8.51;63.82
29247;BME280;16272;48.188;9.964;2023-02-12T11:44:12;97616.72;;;9.02;63.27
29247;BME280;16272;48.188;9.964;2023-02-12T11:46:46;97611.03;;;8.94;63.73
29247;BME280;16272;48.188;9.964;2023-02-12T11:49:19;97614.50;;;8.68;63.64
29247;BME280;16272;48.188;9.964;2023-02-12T11:51:46;97608.41;;;8.94;62.35
29247;BME280;16272;48.188;9.964;2023-02-12T11:54:19;97604.28;;;9.17;63.20
29247;BME280;16272;48.188;9.964;2023-02-12T11:56:47;97610.69;;;9.28;63.96
29247;BME280;16272;48.188;9.964;2023-02-12T12:02:21;97609.03;;;8.40;64.73
29247;BME280;16272;48.188;9.964;2023-02-12T12:04:52;97607.22;;;9.13;62.59
29247;BME280;16272;48.188;9.964;2023-02-12T12:07:28;97608.59;;;8.77;64.86
29247;BME280;16272;48.188;9.964;2023-02-12T12:10:12;97595.44;;;9.31;61.66
29247;BME280;16272;48.188;9.964;2023-02-12T12:12:44;97588.44;;;9.30;61.99
29247;BME280;16272;48.188;9.964;2023-02-12T12:18:18;97595.44;;;9.31;61.81
29247;BME280;16272;48.188;9.964;2023-02-12T12:26:59;97593.59;;;9.05;62.43
29247;BME280;16272;48.188;9.964;2023-02-12T12:29:48;97587.38;;;9.60;62.00
29247;BME280;16272;48.188;9.964;2023-02-12T12:32:15;97588.94;;;8.81;62.76
29247;BME280;16272;48.188;9.964;2023-02-12T12:34:42;97591.81;;;9.32;61.96
29247;BME280;16272;48.188;9.964;2023-02-12T12:37:28;97590.94;;;9.19;61.37
29247;BME280;16272;48.188;9.964;2023-02-12T13:05:10;97572.00;;;9.11;62.53
29247;BME280;16272;48.188;9.964;2023-02-12T13:07:57;97570.03;;;9.42;63.20
29247;BME280;16272;48.188;9.964;2023-02-12T13:13:30;97563.94;;;9.27;63.31
29247;BME280;16272;48.188;9.964;2023-02-12T13:19:00;97559.81;;;9.35;63.13
29247;BME280;16272;48.188;9.964;2023-02-12T13:24:18;97553.16;;;8.31;65.03
29247;BME280;16272;48.188;9.964;2023-02-12T13:26:53;97557.75;;;8.99;63.84
29247;BME280;16272;48.188;9.964;2023-02-12T13:29:22;97550.47;;;9.30;63.53
29247;BME280;16272;48.188;9.964;2023-02-12T13:32:03;97556.31;;;9.08;64.09
29247;BME280;16272;48.188;9.964;2023-02-12T13:34:31;97553.47;;;9.11;64.13
29247;BME280;16272;48.188;9.964;2023-02-12T13:36:59;97553.41;;;9.25;62.98
29247;BME280;16272;48.188;9.964;2023-02-12T13:39:36;97548.00;;;8.58;64.56
29247;BME280;16272;48.188;9.964;2023-02-12T13:44:57;97550.19;;;7.78;66.37
29247;BME280;16272;48.188;9.964;2023-02-12T13:47:40;97562.06;;;7.70;67.35
29247;BME280;16272;48.188;9.964;2023-02-12T13:50:36;97561.16;;;7.55;67.92
29247;BME280;16272;48.188;9.964;2023-02-12T13:56:24;97553.13;;;7.87;67.32
29247;BME280;16272;48.188;9.964;2023-02-12T13:58:53;97543.72;;;7.37;68.82
29247;BME280;16272;48.188;9.964;2023-02-12T14:01:43;97563.53;;;7.90;67.28
29247;BME280;16272;48.188;9.964;2023-02-12T14:06:57;97554.28;;;7.98;67.02
29247;BME280;16272;48.188;9.964;2023-02-12T14:09:29;97559.06;;;7.46;68.32
29247;BME280;16272;48.188;9.964;2023-02-12T14:11:56;97549.47;;;8.04;66.79
29247;BME280;16272;48.188;9.964;2023-02-12T14:14:33;97559.19;;;7.89;67.07
29247;BME280;16272;48.188;9.964;2023-02-12T14:24:57;97552.91;;;7.46;67.71
29247;BME280;16272;48.188;9.964;2023-02-12T14:27:49;97547.50;;;7.33;68.02
29247;BME280;16272;48.188;9.964;2023-02-12T14:37:52;97545.69;;;6.71;70.26
29247;BME280;16272;48.188;9.964;2023-02-12T14:43:03;97546.09;;;6.63;70.10
29247;BME280;16272;48.188;9.964;2023-02-12T14:45:47;97552.22;;;6.96;69.18
29247;BME280;16272;48.188;9.964;2023-02-12T14:48:39;97551.94;;;7.16;69.09
29247;BME280;16272;48.188;9.964;2023-02-12T14:51:15;97550.44;;;6.65;70.52
29247;BME280;16272;48.188;9.964;2023-02-12T14:53:43;97546.69;;;6.85;69.52
29247;BME280;16272;48.188;9.964;2023-02-12T14:56:11;97548.66;;;6.81;69.98
29247;BME280;16272;48.188;9.964;2023-02-12T14:58:36;97535.50;;;6.32;71.16
29247;BME280;16272;48.188;9.964;2023-02-12T15:01:03;97551.03;;;6.54;70.97
29247;BME280;16272;48.188;9.964;2023-02-12T15:03:50;97553.78;;;6.84;70.53
29247;BME280;16272;48.188;9.964;2023-02-12T15:06:20;97545.22;;;7.11;69.15
29247;BME280;16272;48.188;9.964;2023-02-12T15:09:02;97543.25;;;7.14;69.52
29247;BME280;16272;48.188;9.964;2023-02-12T15:11:42;97552.22;;;6.96;69.66
29247;BME280;16272;48.188;9.964;2023-02-12T15:14:22;97555.72;;;7.12;68.65
29247;BME280;16272;48.188;9.964;2023-02-12T15:17:11;97548.22;;;6.73;70.62
29247;BME280;16272;48.188;9.964;2023-02-12T15:19:44;97545.97;;;7.13;68.85
29247;BME280;16272;48.188;9.964;2023-02-12T15:22:34;97554.63;;;7.01;69.24
29247;BME280;16272;48.188;9.964;2023-02-12T15:25:24;97547.44;;;7.18;68.80
29247;BME280;16272;48.188;9.964;2023-02-12T15:28:17;97543.47;;;6.79;69.63
29247;BME280;16272;48.188;9.964;2023-02-12T15:30:44;97545.72;;;7.17;68.69
29247;BME280;16272;48.188;9.964;2023-02-12T15:33:21;97545.31;;;6.93;69.30
29247;BME280;16272;48.188;9.964;2023-02-12T15:35:48;97537.81;;;7.17;67.87
29247;BME280;16272;48.188;9.964;2023-02-12T15:38:26;97546.78;;;7.45;67.46
29247;BME280;16272;48.188;9.964;2023-02-12T15:40:56;97540.97;;;7.08;68.63
29247;BME280;16272;48.188;9.964;2023-02-12T15:43:26;97547.81;;;6.80;68.95
29247;BME280;16272;48.188;9.964;2023-02-12T15:45:52;97545.69;;;6.87;69.26